createdAt,value
2019-06-26T03:08:41.235Z,9.57
2019-06-26T03:12:06.016Z,8.93
2019-06-26T03:15:04.556Z,11.20
2019-06-26T03:18:02.383Z,12.43
2019-06-26T03:21:25.651Z,12.97
2019-06-26T03:24:34.217Z,11.60
2019-06-26T03:27:33.755Z,10.47
2019-06-26T03:30:19.874Z,11.87
2019-06-26T03:32:47.487Z,11.13
2019-06-26T03:35:18.176Z,14.40
2019-06-26T03:37:48.877Z,12.40
2019-06-26T03:40:20.008Z,14.07
2019-06-26T03:42:50.342Z,15.13
2019-06-26T03:45:25.510Z,14.73
2019-06-26T03:47:53.485Z,15.93
2019-06-26T03:50:23.813Z,13.23
2019-06-26T03:52:54.398Z,14.27
2019-06-26T03:55:25.069Z,14.23
2019-06-26T03:57:55.651Z,14.23
2019-06-26T04:00:40.876Z,15.67
2019-06-26T04:03:11.431Z,14.97
2019-06-26T04:05:42.249Z,15.40
2019-06-26T04:08:13.171Z,16.40
2019-06-26T04:10:43.770Z,14.10
2019-06-26T04:13:14.448Z,15.63
2019-06-26T04:15:45.064Z,15.17
2019-06-26T04:18:15.827Z,14.13
2019-06-26T04:20:46.239Z,13.93
2019-06-26T04:23:16.592Z,15.53
2019-06-26T04:25:46.937Z,14.40
2019-06-26T04:28:17.809Z,14.03
2019-06-26T04:30:49.150Z,12.87
2019-06-26T04:33:19.525Z,14.90
2019-06-26T04:35:49.874Z,14.77
2019-06-26T04:38:20.213Z,13.93
2019-06-26T04:40:50.833Z,12.40
2019-06-26T04:43:21.181Z,14.40
2019-06-26T04:45:58.309Z,14.30
2019-06-26T04:48:23.860Z,14.90
2019-06-26T04:50:54.214Z,15.10
2019-06-26T04:53:24.908Z,15.20
2019-06-26T04:55:55.515Z,17.20
2019-06-26T04:58:26.141Z,17.83
2019-06-26T05:00:56.478Z,12.83
2019-06-26T05:03:27.249Z,14.20
2019-06-26T05:05:58.034Z,14.17
2019-06-26T05:08:28.365Z,15.10
2019-06-26T05:10:58.747Z,15.93
2019-06-26T05:13:29.066Z,14.30
2019-06-26T05:16:13.830Z,14.70
2019-06-26T05:18:32.415Z,17.83
2019-06-26T05:21:03.058Z,20.07
2019-06-26T05:23:34.003Z,16.83
2019-06-26T05:26:04.379Z,17.97
2019-06-26T05:28:35.371Z,19.43
2019-06-26T05:31:05.771Z,26.27
2019-06-26T05:33:36.478Z,24.80
2019-06-26T05:36:07.348Z,26.97
2019-06-26T05:38:38.118Z,26.23
2019-06-26T05:41:07.859Z,29.00
2019-06-26T05:43:38.204Z,30.40
2019-06-26T05:46:08.693Z,31.13
2019-06-26T05:48:39.574Z,30.20
2019-06-26T05:51:09.924Z,29.30
2019-06-26T05:53:40.607Z,27.07
2019-06-26T05:56:11.230Z,25.37
2019-06-26T05:58:41.720Z,26.97
2019-06-26T06:01:12.112Z,24.50
2019-06-26T06:03:42.922Z,27.13
2019-06-26T06:06:13.869Z,27.93
2019-06-26T06:08:44.490Z,28.93
2019-06-26T06:11:15.157Z,28.77
2019-06-26T06:13:45.757Z,29.97
2019-06-26T06:16:16.733Z,29.30
2019-06-26T06:18:47.030Z,28.70
2019-06-26T06:21:17.715Z,27.67
2019-06-26T06:23:48.042Z,29.57
2019-06-26T06:26:18.439Z,29.43
2019-06-26T06:28:48.800Z,29.03
2019-06-26T06:31:19.519Z,27.63
2019-06-26T06:33:49.843Z,28.03
2019-06-26T06:36:20.432Z,29.50
2019-06-26T06:38:50.807Z,28.97
2019-06-26T06:41:21.596Z,28.30
2019-06-26T06:43:52.000Z,28.37
2019-06-26T06:46:22.335Z,26.63
2019-06-26T06:48:52.692Z,29.53
2019-06-26T06:51:23.090Z,26.80
2019-06-26T06:53:53.793Z,31.47
2019-06-26T06:56:24.119Z,31.50
2019-06-26T06:58:54.574Z,32.10
2019-06-26T07:01:25.013Z,31.13
2019-06-26T07:03:55.661Z,29.60
2019-06-26T07:06:26.283Z,29.87
2019-06-26T07:08:56.644Z,30.07
2019-06-26T07:11:27.480Z,30.73
2019-06-26T07:13:57.916Z,31.43
2019-06-26T07:16:28.405Z,32.37
2019-06-26T07:18:58.801Z,31.33
2019-06-26T07:21:29.165Z,30.87
2019-06-26T07:23:59.465Z,31.23
2019-06-26T07:26:30.215Z,33.67
2019-06-26T07:29:00.866Z,30.83
2019-06-26T07:31:31.477Z,31.63
2019-06-26T07:34:02.377Z,28.97
2019-06-26T07:36:33.219Z,31.20
2019-06-26T07:39:04.690Z,28.33
2019-06-26T07:41:35.148Z,28.50
2019-06-26T07:44:05.518Z,31.17
2019-06-26T07:46:35.871Z,26.30
2019-06-26T07:49:06.508Z,29.10
2019-06-26T07:51:36.845Z,25.77
2019-06-26T07:54:07.144Z,22.30
2019-06-26T07:56:37.821Z,24.27
2019-06-26T07:59:08.186Z,23.77
2019-06-26T08:01:39.221Z,21.70
2019-06-26T08:04:10.173Z,18.30
2019-06-26T08:06:40.859Z,21.60
2019-06-26T08:09:11.371Z,17.53
2019-06-26T08:11:42.162Z,21.97
2019-06-26T08:14:12.508Z,18.97
2019-06-26T08:16:43.359Z,18.10
2019-06-26T08:19:13.708Z,16.33
2019-06-26T08:21:46.742Z,13.83
2019-06-26T08:24:16.909Z,18.40
2019-06-26T08:26:47.311Z,17.87
2019-06-26T08:29:17.925Z,20.27
2019-06-26T08:31:48.284Z,21.27
2019-06-26T08:34:18.728Z,20.77
2019-06-26T08:36:49.160Z,16.77
2019-06-26T08:39:19.811Z,19.37
2019-06-26T08:41:50.875Z,24.50
2019-06-26T08:44:21.764Z,20.53
2019-06-26T08:46:52.132Z,16.50
2019-06-26T08:49:25.965Z,21.10
2019-06-26T08:51:55.419Z,20.30
2019-06-26T08:54:26.396Z,18.10
2019-06-26T08:56:56.811Z,17.77
2019-06-26T08:59:27.487Z,17.70
2019-06-26T09:01:58.133Z,18.27
2019-06-26T09:04:29.034Z,14.67
2019-06-26T09:06:59.329Z,19.20
2019-06-26T09:09:29.968Z,21.00
2019-06-26T09:12:00.803Z,22.37
2019-06-26T09:14:31.226Z,22.33
2019-06-26T09:17:01.636Z,17.63
2019-06-26T09:19:31.987Z,19.10
2019-06-26T09:22:02.363Z,17.37
2019-06-26T09:24:32.812Z,17.93
2019-06-26T09:27:03.173Z,19.90
2019-06-26T09:29:34.122Z,20.70
2019-06-26T09:32:05.023Z,17.27
2019-06-26T09:34:35.689Z,17.53
2019-06-26T09:37:05.992Z,17.63
2019-06-26T09:39:37.224Z,18.10
2019-06-26T09:42:08.307Z,26.30
2019-06-26T09:44:38.655Z,16.00
2019-06-26T09:47:08.984Z,20.53
2019-06-26T09:49:39.376Z,25.90
2019-06-26T09:52:09.713Z,24.50
2019-06-26T09:54:40.624Z,22.90
2019-06-26T09:57:11.008Z,22.20
2019-06-26T09:59:41.350Z,21.43
2019-06-26T10:02:11.750Z,21.23
2019-06-26T10:04:42.335Z,23.27
2019-06-26T10:07:13.689Z,24.57
2019-06-26T10:09:44.003Z,24.80
2019-06-26T10:12:14.881Z,32.40
2019-06-26T10:14:47.830Z,34.47
2019-06-26T10:17:17.373Z,28.37
2019-06-26T10:19:47.730Z,37.10
2019-06-26T10:22:18.082Z,41.63
2019-06-26T10:24:48.822Z,41.17
2019-06-26T10:27:19.188Z,48.37
2019-06-26T10:29:49.580Z,47.93
2019-06-26T10:32:19.949Z,46.70
2019-06-26T10:34:50.673Z,47.13
2019-06-26T10:37:21.038Z,53.90
2019-06-26T10:39:51.362Z,51.03
2019-06-26T10:42:21.737Z,43.60
2019-06-26T10:44:52.672Z,39.03
2019-06-26T10:47:23.104Z,38.73
2019-06-26T10:49:53.460Z,36.53
2019-06-26T10:52:23.831Z,40.33
2019-06-26T10:54:54.184Z,33.97
2019-06-26T10:57:25.464Z,25.17
2019-06-26T10:59:56.176Z,26.67
2019-06-26T11:02:27.365Z,30.30
2019-06-26T11:04:57.784Z,34.00
2019-06-26T11:07:28.428Z,27.70
2019-06-26T11:09:58.844Z,30.40
2019-06-26T11:12:29.336Z,26.10
2019-06-26T11:14:59.945Z,29.70
2019-06-26T11:17:30.307Z,36.10
2019-06-26T11:20:00.703Z,28.17
2019-06-26T11:22:31.647Z,28.63
2019-06-26T11:25:02.386Z,26.63
2019-06-26T11:27:32.648Z,23.93
2019-06-26T11:30:03.652Z,25.30
2019-06-26T11:32:34.423Z,24.43
2019-06-26T11:35:05.796Z,21.63
2019-06-26T11:37:36.455Z,21.37
2019-06-26T11:40:07.954Z,20.77
2019-06-26T11:42:38.306Z,18.90
2019-06-26T11:45:12.296Z,18.80
2019-06-26T11:47:45.717Z,16.60
2019-06-26T11:50:15.266Z,14.57
2019-06-26T11:52:45.935Z,8.50
2019-06-26T11:55:17.207Z,7.90
2019-06-26T11:57:47.691Z,6.90
2019-06-26T12:00:20.292Z,8.77
2019-06-26T12:02:50.608Z,9.53
2019-06-26T12:05:21.232Z,7.17
2019-06-26T12:07:51.672Z,6.60
2019-06-26T12:10:22.482Z,6.67
2019-06-26T12:12:52.796Z,7.70
2019-06-26T12:15:25.775Z,8.93
2019-06-26T12:17:56.107Z,9.23
2019-06-26T12:20:26.541Z,9.87
2019-06-26T12:22:57.291Z,7.00
2019-06-26T12:25:27.935Z,8.13
2019-06-26T12:27:58.308Z,9.17
2019-06-26T12:30:28.922Z,9.43
2019-06-26T12:33:03.444Z,5.93
2019-06-26T12:35:31.481Z,9.57
2019-06-26T12:38:01.882Z,7.13
2019-06-26T12:40:32.256Z,8.53
2019-06-26T12:43:02.905Z,7.27
2019-06-26T12:45:33.281Z,9.10
2019-06-26T12:48:03.618Z,6.73
2019-06-26T12:50:36.129Z,9.13
2019-06-26T12:53:06.894Z,9.17
2019-06-26T12:55:37.305Z,10.23
2019-06-26T12:58:14.113Z,7.57
2019-06-26T13:00:39.708Z,7.50
2019-06-26T13:03:10.046Z,7.40
2019-06-26T13:05:40.385Z,8.47
2019-06-26T13:08:10.994Z,12.83
2019-06-26T13:10:49.807Z,11.60
2019-06-26T13:13:13.482Z,9.10
2019-06-26T13:15:43.830Z,10.17
2019-06-26T13:18:14.542Z,8.63
2019-06-26T13:20:52.824Z,9.70
2019-06-26T13:23:17.670Z,8.53
2019-06-26T13:25:48.035Z,7.73
2019-06-26T13:28:18.375Z,9.13
2019-06-26T13:30:52.979Z,11.53
2019-06-26T13:33:21.362Z,12.53
2019-06-26T13:35:52.202Z,11.17
2019-06-26T13:38:22.512Z,13.43
2019-06-26T13:40:52.961Z,7.07
2019-06-26T13:43:23.294Z,8.80
2019-06-26T13:45:53.640Z,7.10
2019-06-26T13:48:25.136Z,7.97
2019-06-26T13:51:08.788Z,9.60
2019-06-26T13:53:28.133Z,8.27
2019-06-26T13:55:58.542Z,11.87
2019-06-26T13:58:29.608Z,10.17
2019-06-26T14:00:59.970Z,10.50
2019-06-26T14:03:30.871Z,9.07
2019-06-26T14:06:01.621Z,12.80
2019-06-26T14:08:32.996Z,9.70
2019-06-26T14:11:07.270Z,8.20
2019-06-26T14:13:36.112Z,10.40
2019-06-26T14:16:06.502Z,10.40
2019-06-26T14:18:37.062Z,11.73
2019-06-26T14:21:07.381Z,7.67
2019-06-26T14:23:38.069Z,7.43
2019-06-26T14:26:08.866Z,10.90
2019-06-26T14:28:39.246Z,9.47
2019-06-26T14:31:09.699Z,9.00
2019-06-26T14:33:40.049Z,7.53
2019-06-26T14:36:10.927Z,6.77
2019-06-26T14:38:41.366Z,9.93
2019-06-26T14:41:12.233Z,6.60
2019-06-26T14:43:42.859Z,8.17
2019-06-26T14:46:13.772Z,8.37
2019-06-26T14:48:44.510Z,8.10
2019-06-26T14:51:15.323Z,7.77
2019-06-26T14:53:46.507Z,9.20
2019-06-26T14:56:17.271Z,16.63
2019-06-26T14:58:47.667Z,10.37
2019-06-26T15:01:18.327Z,8.77
2019-06-26T15:03:48.681Z,7.70
2019-06-26T15:06:19.029Z,6.97
2019-06-26T15:08:49.597Z,7.20
2019-06-26T15:11:21.043Z,7.07
2019-06-26T15:13:51.500Z,5.67
2019-06-26T15:16:22.277Z,6.00
2019-06-26T15:18:52.904Z,6.97
2019-06-26T15:21:23.206Z,8.50
2019-06-26T15:23:54.162Z,6.67
2019-06-26T15:26:24.497Z,8.80
2019-06-26T15:28:54.826Z,8.47
2019-06-26T15:31:25.218Z,8.90
2019-06-26T15:33:55.796Z,9.40
2019-06-26T15:36:26.302Z,13.07
2019-06-26T15:38:59.135Z,8.53
2019-06-26T15:41:29.414Z,11.13
2019-06-26T15:43:59.714Z,9.37
2019-06-26T15:46:30.380Z,8.67
2019-06-26T15:49:00.714Z,6.40
2019-06-26T15:51:31.051Z,7.37
2019-06-26T15:54:02.038Z,6.60
2019-06-26T15:56:32.897Z,7.17
2019-06-26T15:59:03.634Z,8.20
2019-06-26T16:01:34.252Z,5.50
2019-06-26T16:04:04.583Z,8.83
2019-06-26T16:06:35.010Z,5.97
2019-06-26T16:09:06.779Z,6.67
2019-06-26T16:11:37.111Z,9.70
2019-06-26T16:14:07.702Z,7.23
2019-06-26T16:16:39.781Z,7.63
2019-06-26T16:19:14.099Z,7.80
2019-06-26T16:21:44.490Z,6.10
2019-06-26T16:24:14.965Z,8.53
2019-06-26T16:26:45.375Z,9.43
2019-06-26T16:29:15.795Z,4.70
2019-06-26T16:31:46.754Z,4.60
2019-06-26T16:34:18.995Z,5.80
2019-06-26T16:36:49.891Z,3.90
2019-06-26T16:39:22.383Z,3.57
2019-06-26T16:41:52.987Z,2.97
2019-06-26T16:44:23.659Z,5.43
2019-06-26T16:46:53.977Z,5.13
2019-06-26T16:49:24.311Z,5.07
2019-06-26T16:51:54.595Z,6.03
2019-06-26T16:54:25.190Z,4.70
2019-06-26T16:56:56.071Z,3.10
2019-06-26T16:59:26.506Z,4.10
2019-06-26T17:01:57.184Z,4.73
2019-06-26T17:04:27.546Z,4.17
2019-06-26T17:06:57.899Z,3.90
2019-06-26T17:09:28.508Z,2.73
2019-06-26T17:11:58.915Z,4.80
2019-06-26T17:14:29.564Z,3.93
2019-06-26T17:17:00.501Z,3.33
2019-06-26T17:19:30.835Z,2.97
2019-06-26T17:22:01.232Z,2.97
2019-06-26T17:24:32.145Z,2.43
2019-06-26T17:27:02.579Z,4.27
2019-06-26T17:29:33.179Z,3.13
2019-06-26T17:32:03.993Z,4.90
2019-06-26T17:34:34.295Z,2.93
2019-06-26T17:37:04.651Z,4.60
2019-06-26T17:39:35.360Z,3.73
2019-06-26T17:42:06.139Z,5.83
2019-06-26T17:44:36.506Z,4.07
2019-06-26T17:47:07.575Z,2.97
2019-06-26T17:49:37.874Z,6.07
2019-06-26T17:52:08.260Z,4.60
2019-06-26T17:54:38.586Z,7.80
2019-06-26T17:57:09.221Z,5.43
2019-06-26T17:59:39.763Z,6.67
2019-06-26T18:02:10.083Z,5.57
2019-06-26T18:04:40.396Z,3.47
2019-06-26T18:07:10.729Z,7.47
2019-06-26T18:09:41.167Z,6.70
2019-06-26T18:12:11.787Z,5.27
2019-06-26T18:14:43.301Z,4.83
2019-06-26T18:17:22.102Z,6.97
2019-06-26T18:19:45.905Z,4.37
2019-06-26T18:22:16.329Z,6.63
2019-06-26T18:24:47.273Z,4.27
2019-06-26T18:27:18.286Z,4.53
2019-06-26T18:29:48.677Z,5.40
2019-06-26T18:32:19.680Z,7.73
2019-06-26T18:34:50.301Z,4.97
2019-06-26T18:37:20.668Z,5.57
2019-06-26T18:39:51.039Z,7.43
2019-06-26T18:42:21.441Z,6.00
2019-06-26T18:44:51.869Z,8.03
2019-06-26T18:47:22.597Z,4.33
2019-06-26T18:49:53.287Z,7.23
2019-06-26T18:52:23.634Z,9.33
2019-06-26T18:54:54.066Z,9.17
2019-06-26T18:57:24.388Z,6.10
2019-06-26T18:59:54.722Z,5.57
2019-06-26T19:02:25.086Z,4.47
2019-06-26T19:04:55.473Z,6.90
2019-06-26T19:07:25.812Z,7.27
2019-06-26T19:09:56.134Z,6.77
2019-06-26T19:12:26.462Z,6.87
2019-06-26T19:14:56.874Z,4.97
2019-06-26T19:17:27.240Z,8.07
2019-06-26T19:19:57.659Z,4.93
2019-06-26T19:22:28.316Z,4.53
2019-06-26T19:24:58.937Z,5.37
2019-06-26T19:27:29.285Z,8.40
2019-06-26T19:29:59.658Z,7.27
2019-06-26T19:32:30.361Z,8.37
2019-06-26T19:35:07.977Z,4.07
2019-06-26T19:37:33.004Z,4.13
2019-06-26T19:40:03.347Z,6.07
2019-06-26T19:42:33.787Z,5.43
2019-06-26T19:45:04.579Z,8.00
2019-06-26T19:47:35.433Z,5.70
2019-06-26T19:50:06.314Z,7.50
2019-06-26T19:52:36.650Z,5.50
2019-06-26T19:55:08.105Z,5.60
2019-06-26T19:57:38.734Z,7.17
2019-06-26T20:00:10.021Z,9.00
2019-06-26T20:02:41.005Z,6.77
2019-06-26T20:05:13.029Z,4.60
2019-06-26T20:07:43.610Z,8.47
2019-06-26T20:10:14.219Z,9.20
2019-06-26T20:12:44.967Z,11.57
2019-06-26T20:15:15.294Z,7.17
2019-06-26T20:17:45.930Z,6.90
2019-06-26T20:20:16.345Z,9.03
2019-06-26T20:22:46.673Z,8.33
2019-06-26T20:25:17.110Z,7.63
2019-06-26T20:27:47.597Z,8.47
2019-06-26T20:30:21.062Z,5.90
2019-06-26T20:32:51.386Z,6.23
2019-06-26T20:35:22.309Z,9.63
2019-06-26T20:37:53.650Z,4.90
2019-06-26T20:40:24.385Z,11.00
2019-06-26T20:42:55.394Z,14.33
2019-06-26T20:45:26.269Z,7.60
2019-06-26T20:47:57.457Z,7.57
2019-06-26T20:50:27.964Z,10.40
2019-06-26T20:52:58.347Z,7.03
2019-06-26T20:55:29.275Z,8.77
2019-06-26T20:57:59.718Z,7.23
2019-06-26T21:00:30.780Z,11.53
2019-06-26T21:03:01.830Z,10.60
2019-06-26T21:05:32.569Z,6.93
2019-06-26T21:08:03.336Z,5.83
2019-06-26T21:10:34.534Z,8.53
2019-06-26T21:13:04.876Z,8.57
2019-06-26T21:15:35.207Z,9.37
2019-06-26T21:18:05.520Z,7.47
2019-06-26T21:20:35.855Z,7.37
2019-06-26T21:23:17.704Z,6.60
2019-06-26T21:25:38.814Z,7.33
2019-06-26T21:28:09.527Z,8.57
2019-06-26T21:30:40.302Z,6.47
2019-06-26T21:33:10.928Z,9.40
2019-06-26T21:35:41.217Z,9.43
2019-06-26T21:39:26.228Z,8.73
2019-06-26T21:41:56.911Z,7.77
2019-06-26T21:44:27.269Z,8.77
2019-06-26T21:46:58.204Z,8.27
2019-06-26T21:49:28.675Z,7.13
2019-06-26T21:51:59.271Z,8.17
2019-06-26T21:54:29.605Z,5.80
2019-06-26T21:57:00.119Z,7.37
2019-06-26T21:59:32.349Z,7.23
2019-06-26T22:02:02.875Z,9.37
2019-06-26T22:04:33.443Z,7.20
2019-06-26T22:07:03.925Z,8.07
2019-06-26T22:09:34.339Z,8.23
2019-06-26T22:12:04.693Z,6.30
2019-06-26T22:14:37.000Z,6.70
2019-06-26T22:17:07.397Z,8.63
2019-06-26T22:19:38.074Z,10.90
2019-06-26T22:22:08.453Z,8.13
2019-06-26T22:24:45.101Z,8.97
2019-06-26T22:27:15.523Z,9.87
2019-06-26T22:29:46.278Z,8.33
2019-06-26T22:32:16.608Z,7.10
2019-06-26T22:34:48.174Z,7.43
2019-06-26T22:37:22.025Z,8.67
2019-06-26T22:39:52.921Z,7.37
2019-06-26T22:42:27.021Z,10.57
2019-06-26T22:44:57.517Z,7.53
2019-06-26T22:47:27.988Z,8.37
2019-06-26T22:49:58.314Z,5.90
2019-06-26T22:52:29.140Z,5.57
2019-06-26T22:54:59.783Z,9.03
2019-06-26T22:57:30.264Z,10.30
2019-06-26T23:00:00.863Z,11.07
2019-06-26T23:02:31.207Z,10.30
2019-06-26T23:05:01.891Z,8.67
2019-06-26T23:07:32.365Z,12.00
2019-06-26T23:10:03.129Z,7.37
2019-06-26T23:12:33.717Z,8.57
2019-06-26T23:15:04.222Z,9.57
2019-06-26T23:17:34.631Z,8.77
2019-06-26T23:20:05.563Z,7.10
2019-06-26T23:22:36.012Z,6.73
2019-06-26T23:25:06.885Z,11.73
2019-06-26T23:27:37.652Z,6.93
2019-06-26T23:30:18.435Z,9.97
2019-06-26T23:32:54.815Z,10.90
2019-06-26T23:35:27.228Z,11.57
2019-06-26T23:37:59.918Z,15.97
2019-06-26T23:40:30.705Z,10.30
2019-06-26T23:43:01.036Z,10.63
2019-06-26T23:45:31.363Z,14.60
2019-06-26T23:48:02.084Z,12.00
2019-06-26T23:50:32.460Z,10.67
2019-06-26T23:53:02.852Z,14.13
2019-06-26T23:55:33.560Z,10.10
2019-06-26T23:58:04.492Z,8.73
